sensor_id;sensor_type;location;lat;lon;timestamp;temperature;humidity
36450;DHT22;22475;51.390;7.180;2022-07-10T00:00:08;20.10;90.10
36450;DHT22;22475;51.390;7.180;2022-07-10T00:02:36;20.10;90.20
36450;DHT22;22475;51.390;7.180;2022-07-10T00:05:05;20.10;90.20
36450;DHT22;22475;51.390;7.180;2022-07-10T00:07:32;20.10;90.20
36450;DHT22;22475;51.390;7.180;2022-07-10T00:10:00;20.10;90.20
36450;DHT22;22475;51.390;7.180;2022-07-10T00:12:27;20.10;90.30
36450;DHT22;22475;51.390;7.180;2022-07-10T00:14:54;20.10;90.30
36450;DHT22;22475;51.390;7.180;2022-07-10T00:17:21;20.10;90.30
36450;DHT22;22475;51.390;7.180;2022-07-10T00:19:48;20.10;90.30
36450;DHT22;22475;51.390;7.180;2022-07-10T00:22:16;20.10;90.30
36450;DHT22;22475;51.390;7.180;2022-07-10T00:24:43;20.10;90.30
36450;DHT22;22475;51.390;7.180;2022-07-10T00:27:10;20.10;90.30
36450;DHT22;22475;51.390;7.180;2022-07-10T00:29:37;20.10;90.30
36450;DHT22;22475;51.390;7.180;2022-07-10T00:32:05;20.00;90.30
36450;DHT22;22475;51.390;7.180;2022-07-10T00:34:32;20.00;90.30
36450;DHT22;22475;51.390;7.180;2022-07-10T00:36:59;20.00;90.20
36450;DHT22;22475;51.390;7.180;2022-07-10T00:39:28;20.00;90.10
36450;DHT22;22475;51.390;7.180;2022-07-10T00:41:55;20.00;90.00
36450;DHT22;22475;51.390;7.180;2022-07-10T00:44:22;20.10;90.00
36450;DHT22;22475;51.390;7.180;2022-07-10T00:46:49;20.00;90.00
36450;DHT22;22475;51.390;7.180;2022-07-10T00:49:15;20.10;90.00
36450;DHT22;22475;51.390;7.180;2022-07-10T00:51:43;20.00;89.90
36450;DHT22;22475;51.390;7.180;2022-07-10T00:54:10;20.00;89.90
36450;DHT22;22475;51.390;7.180;2022-07-10T00:56:39;20.00;90.00
36450;DHT22;22475;51.390;7.180;2022-07-10T00:59:06;20.00;90.00
36450;DHT22;22475;51.390;7.180;2022-07-10T01:01:33;20.10;90.00
36450;DHT22;22475;51.390;7.180;2022-07-10T01:04:00;20.10;90.00
36450;DHT22;22475;51.390;7.180;2022-07-10T01:06:27;20.10;90.10
36450;DHT22;22475;51.390;7.180;2022-07-10T01:08:54;20.00;90.10
36450;DHT22;22475;51.390;7.180;2022-07-10T01:11:21;20.00;90.10
36450;DHT22;22475;51.390;7.180;2022-07-10T01:13:49;20.10;90.10
36450;DHT22;22475;51.390;7.180;2022-07-10T01:16:17;20.00;90.10
36450;DHT22;22475;51.390;7.180;2022-07-10T01:18:44;20.00;90.10
36450;DHT22;22475;51.390;7.180;2022-07-10T01:21:25;20.00;90.00
36450;DHT22;22475;51.390;7.180;2022-07-10T01:23:52;20.00;90.00
36450;DHT22;22475;51.390;7.180;2022-07-10T01:26:20;20.00;90.00
36450;DHT22;22475;51.390;7.180;2022-07-10T01:28:49;20.00;90.00
36450;DHT22;22475;51.390;7.180;2022-07-10T01:31:17;20.00;90.00
36450;DHT22;22475;51.390;7.180;2022-07-10T01:33:44;20.00;89.80
36450;DHT22;22475;51.390;7.180;2022-07-10T01:36:11;20.00;89.80
36450;DHT22;22475;51.390;7.180;2022-07-10T01:38:41;20.00;89.80
36450;DHT22;22475;51.390;7.180;2022-07-10T01:41:07;20.00;89.60
36450;DHT22;22475;51.390;7.180;2022-07-10T01:43:35;20.00;89.40
36450;DHT22;22475;51.390;7.180;2022-07-10T01:46:02;20.00;89.40
36450;DHT22;22475;51.390;7.180;2022-07-10T01:48:29;20.00;89.20
36450;DHT22;22475;51.390;7.180;2022-07-10T01:50:57;20.00;89.00
36450;DHT22;22475;51.390;7.180;2022-07-10T01:53:24;20.00;89.00
36450;DHT22;22475;51.390;7.180;2022-07-10T01:55:52;20.00;88.80
36450;DHT22;22475;51.390;7.180;2022-07-10T01:58:19;20.00;88.80
36450;DHT22;22475;51.390;7.180;2022-07-10T02:00:46;20.00;88.90
36450;DHT22;22475;51.390;7.180;2022-07-10T02:03:13;20.00;89.40
36450;DHT22;22475;51.390;7.180;2022-07-10T02:05:57;20.00;88.40
36450;DHT22;22475;51.390;7.180;2022-07-10T02:08:24;20.00;88.60
36450;DHT22;22475;51.390;7.180;2022-07-10T02:10:52;20.00;88.60
36450;DHT22;22475;51.390;7.180;2022-07-10T02:13:19;20.00;88.50
36450;DHT22;22475;51.390;7.180;2022-07-10T02:15:46;20.00;88.50
36450;DHT22;22475;51.390;7.180;2022-07-10T02:18:14;20.00;88.30
36450;DHT22;22475;51.390;7.180;2022-07-10T02:20:40;19.90;88.10
36450;DHT22;22475;51.390;7.180;2022-07-10T02:23:07;20.00;88.10
36450;DHT22;22475;51.390;7.180;2022-07-10T02:25:34;19.90;88.10
36450;DHT22;22475;51.390;7.180;2022-07-10T02:28:03;20.00;88.10
36450;DHT22;22475;51.390;7.180;2022-07-10T02:30:30;20.00;88.10
36450;DHT22;22475;51.390;7.180;2022-07-10T02:32:58;19.90;88.10
36450;DHT22;22475;51.390;7.180;2022-07-10T02:35:24;20.00;88.00
36450;DHT22;22475;51.390;7.180;2022-07-10T02:37:51;20.00;87.70
36450;DHT22;22475;51.390;7.180;2022-07-10T02:40:18;20.00;87.50
36450;DHT22;22475;51.390;7.180;2022-07-10T02:42:45;19.90;87.40
36450;DHT22;22475;51.390;7.180;2022-07-10T02:45:14;19.90;88.30
36450;DHT22;22475;51.390;7.180;2022-07-10T02:47:41;19.90;87.40
36450;DHT22;22475;51.390;7.180;2022-07-10T02:50:08;19.90;87.60
36450;DHT22;22475;51.390;7.180;2022-07-10T02:52:36;19.90;87.80
36450;DHT22;22475;51.390;7.180;2022-07-10T02:55:03;19.90;88.00
36450;DHT22;22475;51.390;7.180;2022-07-10T02:57:30;19.90;88.20
36450;DHT22;22475;51.390;7.180;2022-07-10T02:59:57;19.90;88.40
36450;DHT22;22475;51.390;7.180;2022-07-10T03:02:26;19.90;88.50
36450;DHT22;22475;51.390;7.180;2022-07-10T03:04:53;19.90;88.60
36450;DHT22;22475;51.390;7.180;2022-07-10T03:07:20;19.90;88.70
36450;DHT22;22475;51.390;7.180;2022-07-10T03:09:47;19.90;88.60
36450;DHT22;22475;51.390;7.180;2022-07-10T03:12:13;19.90;88.60
36450;DHT22;22475;51.390;7.180;2022-07-10T03:14:40;19.90;88.50
36450;DHT22;22475;51.390;7.180;2022-07-10T03:17:07;19.90;88.40
36450;DHT22;22475;51.390;7.180;2022-07-10T03:19:35;19.90;88.20
36450;DHT22;22475;51.390;7.180;2022-07-10T03:22:03;19.90;88.20
36450;DHT22;22475;51.390;7.180;2022-07-10T03:24:30;19.90;88.20
36450;DHT22;22475;51.390;7.180;2022-07-10T03:26:57;19.90;88.20
36450;DHT22;22475;51.390;7.180;2022-07-10T03:29:23;19.90;88.10
36450;DHT22;22475;51.390;7.180;2022-07-10T03:31:50;19.80;88.20
36450;DHT22;22475;51.390;7.180;2022-07-10T03:34:17;19.90;88.10
36450;DHT22;22475;51.390;7.180;2022-07-10T03:36:45;19.80;88.00
36450;DHT22;22475;51.390;7.180;2022-07-10T03:39:12;19.90;88.10
36450;DHT22;22475;51.390;7.180;2022-07-10T03:41:39;19.80;88.60
36450;DHT22;22475;51.390;7.180;2022-07-10T03:44:06;19.90;88.10
36450;DHT22;22475;51.390;7.180;2022-07-10T03:46:33;19.80;88.20
36450;DHT22;22475;51.390;7.180;2022-07-10T03:49:00;19.80;88.30
36450;DHT22;22475;51.390;7.180;2022-07-10T03:51:26;19.80;88.20
36450;DHT22;22475;51.390;7.180;2022-07-10T03:53:55;19.80;88.40
36450;DHT22;22475;51.390;7.180;2022-07-10T03:56:22;19.90;88.60
36450;DHT22;22475;51.390;7.180;2022-07-10T03:59:06;19.90;88.80
36450;DHT22;22475;51.390;7.180;2022-07-10T04:01:32;19.80;88.90
36450;DHT22;22475;51.390;7.180;2022-07-10T04:03:59;19.80;89.00
36450;DHT22;22475;51.390;7.180;2022-07-10T04:06:27;19.90;89.10
36450;DHT22;22475;51.390;7.180;2022-07-10T04:08:55;19.80;89.00
36450;DHT22;22475;51.390;7.180;2022-07-10T04:11:22;19.90;89.10
36450;DHT22;22475;51.390;7.180;2022-07-10T04:13:49;19.80;89.20
36450;DHT22;22475;51.390;7.180;2022-07-10T04:16:16;19.80;89.30
36450;DHT22;22475;51.390;7.180;2022-07-10T04:18:43;19.80;89.40
36450;DHT22;22475;51.390;7.180;2022-07-10T04:21:10;19.80;89.50
36450;DHT22;22475;51.390;7.180;2022-07-10T04:23:37;19.80;89.70
36450;DHT22;22475;51.390;7.180;2022-07-10T04:26:06;19.80;89.70
36450;DHT22;22475;51.390;7.180;2022-07-10T04:28:32;19.80;89.70
36450;DHT22;22475;51.390;7.180;2022-07-10T04:30:59;19.80;89.70
36450;DHT22;22475;51.390;7.180;2022-07-10T04:33:26;19.80;89.60
36450;DHT22;22475;51.390;7.180;2022-07-10T04:35:53;19.80;89.40
36450;DHT22;22475;51.390;7.180;2022-07-10T04:38:20;19.80;89.20
36450;DHT22;22475;51.390;7.180;2022-07-10T04:40:47;19.80;88.90
36450;DHT22;22475;51.390;7.180;2022-07-10T04:43:15;19.80;88.70
36450;DHT22;22475;51.390;7.180;2022-07-10T04:45:42;19.80;88.70
36450;DHT22;22475;51.390;7.180;2022-07-10T04:48:09;19.80;88.80
36450;DHT22;22475;51.390;7.180;2022-07-10T04:50:36;19.80;88.70
36450;DHT22;22475;51.390;7.180;2022-07-10T04:53:02;19.80;88.70
36450;DHT22;22475;51.390;7.180;2022-07-10T04:55:29;19.80;88.60
36450;DHT22;22475;51.390;7.180;2022-07-10T04:57:56;19.80;88.30
36450;DHT22;22475;51.390;7.180;2022-07-10T05:00:25;19.80;88.30
36450;DHT22;22475;51.390;7.180;2022-07-10T05:02:52;19.80;88.30
36450;DHT22;22475;51.390;7.180;2022-07-10T05:05:19;19.80;88.30
36450;DHT22;22475;51.390;7.180;2022-07-10T05:07:45;19.70;88.10
36450;DHT22;22475;51.390;7.180;2022-07-10T05:10:12;19.70;87.90
36450;DHT22;22475;51.390;7.180;2022-07-10T05:12:39;19.70;87.70
36450;DHT22;22475;51.390;7.180;2022-07-10T05:15:08;19.70;87.70
36450;DHT22;22475;51.390;7.180;2022-07-10T05:17:36;19.70;87.50
36450;DHT22;22475;51.390;7.180;2022-07-10T05:20:04;19.80;87.50
36450;DHT22;22475;51.390;7.180;2022-07-10T05:22:32;19.70;87.50
36450;DHT22;22475;51.390;7.180;2022-07-10T05:24:59;19.70;87.50
36450;DHT22;22475;51.390;7.180;2022-07-10T05:27:25;19.80;87.70
36450;DHT22;22475;51.390;7.180;2022-07-10T05:29:53;19.70;87.60
36450;DHT22;22475;51.390;7.180;2022-07-10T05:32:20;19.70;87.40
36450;DHT22;22475;51.390;7.180;2022-07-10T05:34:48;19.70;87.00
36450;DHT22;22475;51.390;7.180;2022-07-10T05:37:15;19.70;86.90
36450;DHT22;22475;51.390;7.180;2022-07-10T05:39:42;19.70;87.00
36450;DHT22;22475;51.390;7.180;2022-07-10T05:42:09;19.70;87.20
36450;DHT22;22475;51.390;7.180;2022-07-10T05:44:36;19.70;86.90
36450;DHT22;22475;51.390;7.180;2022-07-10T05:47:03;19.70;86.80
36450;DHT22;22475;51.390;7.180;2022-07-10T05:49:30;19.80;86.70
36450;DHT22;22475;51.390;7.180;2022-07-10T05:51:59;19.70;86.40
36450;DHT22;22475;51.390;7.180;2022-07-10T05:54:26;19.70;86.40
36450;DHT22;22475;51.390;7.180;2022-07-10T05:56:53;19.70;86.60
36450;DHT22;22475;51.390;7.180;2022-07-10T05:59:19;19.70;86.50
36450;DHT22;22475;51.390;7.180;2022-07-10T06:01:47;19.70;86.40
36450;DHT22;22475;51.390;7.180;2022-07-10T06:04:14;19.70;86.40
36450;DHT22;22475;51.390;7.180;2022-07-10T06:06:40;19.70;86.30
36450;DHT22;22475;51.390;7.180;2022-07-10T06:09:09;19.70;86.40
36450;DHT22;22475;51.390;7.180;2022-07-10T06:11:35;19.70;86.60
36450;DHT22;22475;51.390;7.180;2022-07-10T06:14:02;19.70;86.60
36450;DHT22;22475;51.390;7.180;2022-07-10T06:16:29;19.70;86.60
36450;DHT22;22475;51.390;7.180;2022-07-10T06:18:56;19.70;86.60
36450;DHT22;22475;51.390;7.180;2022-07-10T06:21:23;19.70;86.70
36450;DHT22;22475;51.390;7.180;2022-07-10T06:23:50;19.70;86.80
36450;DHT22;22475;51.390;7.180;2022-07-10T06:26:18;19.70;86.70
36450;DHT22;22475;51.390;7.180;2022-07-10T06:28:45;19.70;86.60
36450;DHT22;22475;51.390;7.180;2022-07-10T06:31:12;19.70;86.40
36450;DHT22;22475;51.390;7.180;2022-07-10T06:33:39;19.70;86.40
36450;DHT22;22475;51.390;7.180;2022-07-10T06:36:06;19.70;86.20
36450;DHT22;22475;51.390;7.180;2022-07-10T06:38:33;19.70;86.10
36450;DHT22;22475;51.390;7.180;2022-07-10T06:41:00;19.70;85.90
36450;DHT22;22475;51.390;7.180;2022-07-10T06:43:29;19.70;85.90
36450;DHT22;22475;51.390;7.180;2022-07-10T06:45:56;19.70;85.90
36450;DHT22;22475;51.390;7.180;2022-07-10T06:48:23;19.70;85.80
36450;DHT22;22475;51.390;7.180;2022-07-10T06:50:49;19.70;85.50
36450;DHT22;22475;51.390;7.180;2022-07-10T06:53:16;19.70;85.20
36450;DHT22;22475;51.390;7.180;2022-07-10T06:55:43;19.70;85.50
36450;DHT22;22475;51.390;7.180;2022-07-10T06:58:10;19.70;85.80
36450;DHT22;22475;51.390;7.180;2022-07-10T07:00:39;19.70;85.90
36450;DHT22;22475;51.390;7.180;2022-07-10T07:03:06;19.70;85.90
36450;DHT22;22475;51.390;7.180;2022-07-10T07:05:32;19.70;86.10
36450;DHT22;22475;51.390;7.180;2022-07-10T07:07:59;19.70;86.20
36450;DHT22;22475;51.390;7.180;2022-07-10T07:10:26;19.70;86.20
36450;DHT22;22475;51.390;7.180;2022-07-10T07:12:53;19.70;86.30
36450;DHT22;22475;51.390;7.180;2022-07-10T07:15:20;19.70;86.20
36450;DHT22;22475;51.390;7.180;2022-07-10T07:17:50;19.70;86.30
36450;DHT22;22475;51.390;7.180;2022-07-10T07:20:33;19.70;86.40
36450;DHT22;22475;51.390;7.180;2022-07-10T07:23:18;19.70;86.40
36450;DHT22;22475;51.390;7.180;2022-07-10T07:25:45;19.70;86.10
36450;DHT22;22475;51.390;7.180;2022-07-10T07:28:13;19.70;86.40
36450;DHT22;22475;51.390;7.180;2022-07-10T07:30:43;19.70;85.20
36450;DHT22;22475;51.390;7.180;2022-07-10T07:33:11;19.70;85.20
36450;DHT22;22475;51.390;7.180;2022-07-10T07:35:41;19.70;85.20
36450;DHT22;22475;51.390;7.180;2022-07-10T07:38:08;19.70;85.00
36450;DHT22;22475;51.390;7.180;2022-07-10T07:40:35;19.70;85.00
36450;DHT22;22475;51.390;7.180;2022-07-10T07:43:03;19.70;85.00
36450;DHT22;22475;51.390;7.180;2022-07-10T07:45:30;19.70;84.70
36450;DHT22;22475;51.390;7.180;2022-07-10T07:47:58;19.60;84.80
36450;DHT22;22475;51.390;7.180;2022-07-10T07:50:31;19.60;84.90
36450;DHT22;22475;51.390;7.180;2022-07-10T07:52:59;19.70;85.10
36450;DHT22;22475;51.390;7.180;2022-07-10T07:55:27;19.70;85.20
36450;DHT22;22475;51.390;7.180;2022-07-10T07:57:55;19.60;85.30
36450;DHT22;22475;51.390;7.180;2022-07-10T08:00:24;19.60;85.60
36450;DHT22;22475;51.390;7.180;2022-07-10T08:02:52;19.70;85.60
36450;DHT22;22475;51.390;7.180;2022-07-10T08:05:20;19.60;85.80
36450;DHT22;22475;51.390;7.180;2022-07-10T08:07:52;19.60;85.80
36450;DHT22;22475;51.390;7.180;2022-07-10T08:10:20;19.60;85.60
36450;DHT22;22475;51.390;7.180;2022-07-10T08:12:47;19.60;85.60
36450;DHT22;22475;51.390;7.180;2022-07-10T08:15:16;19.70;85.60
36450;DHT22;22475;51.390;7.180;2022-07-10T08:17:43;19.60;85.60
36450;DHT22;22475;51.390;7.180;2022-07-10T08:20:12;19.60;85.70
36450;DHT22;22475;51.390;7.180;2022-07-10T08:22:39;19.60;85.90
36450;DHT22;22475;51.390;7.180;2022-07-10T08:25:09;19.60;86.20
36450;DHT22;22475;51.390;7.180;2022-07-10T08:27:36;19.60;86.20
36450;DHT22;22475;51.390;7.180;2022-07-10T08:30:06;19.60;86.20
36450;DHT22;22475;51.390;7.180;2022-07-10T08:32:34;19.60;86.30
36450;DHT22;22475;51.390;7.180;2022-07-10T08:35:01;19.60;86.30
36450;DHT22;22475;51.390;7.180;2022-07-10T08:37:28;19.60;86.40
36450;DHT22;22475;51.390;7.180;2022-07-10T08:39:55;19.60;86.60
36450;DHT22;22475;51.390;7.180;2022-07-10T08:42:24;19.60;86.60
36450;DHT22;22475;51.390;7.180;2022-07-10T08:44:51;19.60;86.90
36450;DHT22;22475;51.390;7.180;2022-07-10T08:47:21;19.60;87.10
36450;DHT22;22475;51.390;7.180;2022-07-10T08:49:51;19.60;87.00
36450;DHT22;22475;51.390;7.180;2022-07-10T08:52:26;19.60;87.10
36450;DHT22;22475;51.390;7.180;2022-07-10T08:54:54;19.60;87.70
36450;DHT22;22475;51.390;7.180;2022-07-10T08:57:23;19.60;86.90
36450;DHT22;22475;51.390;7.180;2022-07-10T08:59:50;19.60;86.90
36450;DHT22;22475;51.390;7.180;2022-07-10T09:02:17;19.60;86.90
36450;DHT22;22475;51.390;7.180;2022-07-10T09:04:44;19.60;86.80
36450;DHT22;22475;51.390;7.180;2022-07-10T09:07:11;19.60;86.70
36450;DHT22;22475;51.390;7.180;2022-07-10T09:09:51;19.60;86.90
36450;DHT22;22475;51.390;7.180;2022-07-10T09:12:19;19.60;87.20
36450;DHT22;22475;51.390;7.180;2022-07-10T09:14:48;19.60;87.30
36450;DHT22;22475;51.390;7.180;2022-07-10T09:17:15;19.60;87.40
36450;DHT22;22475;51.390;7.180;2022-07-10T09:19:43;19.60;87.60
36450;DHT22;22475;51.390;7.180;2022-07-10T09:22:11;19.60;87.80
36450;DHT22;22475;51.390;7.180;2022-07-10T09:24:40;19.60;87.90
36450;DHT22;22475;51.390;7.180;2022-07-10T09:27:07;19.60;88.00
36450;DHT22;22475;51.390;7.180;2022-07-10T09:29:45;19.60;88.00
36450;DHT22;22475;51.390;7.180;2022-07-10T09:32:15;19.60;88.00
36450;DHT22;22475;51.390;7.180;2022-07-10T09:34:43;19.60;88.00
36450;DHT22;22475;51.390;7.180;2022-07-10T09:37:22;19.60;88.00
36450;DHT22;22475;51.390;7.180;2022-07-10T09:40:10;19.60;88.10
36450;DHT22;22475;51.390;7.180;2022-07-10T09:42:46;19.60;88.20
36450;DHT22;22475;51.390;7.180;2022-07-10T09:45:15;19.60;88.30
36450;DHT22;22475;51.390;7.180;2022-07-10T09:47:47;19.60;88.30
36450;DHT22;22475;51.390;7.180;2022-07-10T09:50:22;19.60;88.30
36450;DHT22;22475;51.390;7.180;2022-07-10T09:52:51;19.60;88.30
36450;DHT22;22475;51.390;7.180;2022-07-10T09:55:20;19.60;88.30
36450;DHT22;22475;51.390;7.180;2022-07-10T09:57:54;19.60;88.30
36450;DHT22;22475;51.390;7.180;2022-07-10T10:00:23;19.60;88.30
36450;DHT22;22475;51.390;7.180;2022-07-10T10:02:55;19.60;88.40
36450;DHT22;22475;51.390;7.180;2022-07-10T10:05:33;19.60;88.30
36450;DHT22;22475;51.390;7.180;2022-07-10T10:08:03;19.60;88.30
36450;DHT22;22475;51.390;7.180;2022-07-10T10:10:32;19.60;88.40
36450;DHT22;22475;51.390;7.180;2022-07-10T10:13:08;19.60;88.50
36450;DHT22;22475;51.390;7.180;2022-07-10T10:15:37;19.60;88.60
36450;DHT22;22475;51.390;7.180;2022-07-10T10:18:06;19.60;88.60
36450;DHT22;22475;51.390;7.180;2022-07-10T10:20:33;19.60;88.50
36450;DHT22;22475;51.390;7.180;2022-07-10T10:23:04;19.60;88.40
36450;DHT22;22475;51.390;7.180;2022-07-10T10:25:32;19.60;88.30
36450;DHT22;22475;51.390;7.180;2022-07-10T10:28:01;19.60;88.50
36450;DHT22;22475;51.390;7.180;2022-07-10T10:30:30;19.60;88.60
36450;DHT22;22475;51.390;7.180;2022-07-10T10:32:57;19.60;88.60
36450;DHT22;22475;51.390;7.180;2022-07-10T10:35:45;19.60;88.60
36450;DHT22;22475;51.390;7.180;2022-07-10T10:38:13;19.60;88.80
36450;DHT22;22475;51.390;7.180;2022-07-10T10:40:41;19.60;88.80
36450;DHT22;22475;51.390;7.180;2022-07-10T10:43:18;19.60;89.00
36450;DHT22;22475;51.390;7.180;2022-07-10T10:45:45;19.60;89.10
36450;DHT22;22475;51.390;7.180;2022-07-10T10:48:13;19.60;89.10
36450;DHT22;22475;51.390;7.180;2022-07-10T10:50:41;19.60;89.00
36450;DHT22;22475;51.390;7.180;2022-07-10T10:53:19;19.60;89.00
36450;DHT22;22475;51.390;7.180;2022-07-10T10:56:21;19.60;89.00
36450;DHT22;22475;51.390;7.180;2022-07-10T10:58:49;19.60;89.20
36450;DHT22;22475;51.390;7.180;2022-07-10T11:01:28;19.60;89.10
36450;DHT22;22475;51.390;7.180;2022-07-10T11:04:13;19.60;89.30
36450;DHT22;22475;51.390;7.180;2022-07-10T11:06:42;19.60;89.40
36450;DHT22;22475;51.390;7.180;2022-07-10T11:09:26;19.60;89.40
36450;DHT22;22475;51.390;7.180;2022-07-10T11:12:01;19.60;89.70
36450;DHT22;22475;51.390;7.180;2022-07-10T11:14:29;19.60;89.70
36450;DHT22;22475;51.390;7.180;2022-07-10T11:16:57;19.70;89.70
36450;DHT22;22475;51.390;7.180;2022-07-10T11:19:24;19.60;89.70
36450;DHT22;22475;51.390;7.180;2022-07-10T11:24:50;19.70;90.00
36450;DHT22;22475;51.390;7.180;2022-07-10T11:27:28;19.60;90.00
36450;DHT22;22475;51.390;7.180;2022-07-10T11:29:59;19.60;90.00
36450;DHT22;22475;51.390;7.180;2022-07-10T11:32:27;19.60;90.00
36450;DHT22;22475;51.390;7.180;2022-07-10T11:34:55;19.70;90.00
36450;DHT22;22475;51.390;7.180;2022-07-10T11:37:26;19.60;90.00
36450;DHT22;22475;51.390;7.180;2022-07-10T11:40:12;19.60;90.00
36450;DHT22;22475;51.390;7.180;2022-07-10T11:42:53;19.60;90.00
36450;DHT22;22475;51.390;7.180;2022-07-10T11:45:27;19.60;90.00
36450;DHT22;22475;51.390;7.180;2022-07-10T11:47:55;19.60;90.00
36450;DHT22;22475;51.390;7.180;2022-07-10T11:50:21;19.60;90.10
36450;DHT22;22475;51.390;7.180;2022-07-10T11:52:49;19.70;90.10
36450;DHT22;22475;51.390;7.180;2022-07-10T11:55:18;19.60;90.10
36450;DHT22;22475;51.390;7.180;2022-07-10T11:57:45;19.70;90.20
36450;DHT22;22475;51.390;7.180;2022-07-10T12:00:24;19.60;90.20
36450;DHT22;22475;51.390;7.180;2022-07-10T12:02:52;19.70;90.30
36450;DHT22;22475;51.390;7.180;2022-07-10T12:05:32;19.70;90.30
36450;DHT22;22475;51.390;7.180;2022-07-10T12:07:59;19.70;90.70
36450;DHT22;22475;51.390;7.180;2022-07-10T12:10:28;19.60;90.30
36450;DHT22;22475;51.390;7.180;2022-07-10T12:13:05;19.60;90.30
36450;DHT22;22475;51.390;7.180;2022-07-10T12:15:33;19.70;90.40
36450;DHT22;22475;51.390;7.180;2022-07-10T12:18:02;19.70;90.40
36450;DHT22;22475;51.390;7.180;2022-07-10T12:20:29;19.70;90.40
36450;DHT22;22475;51.390;7.180;2022-07-10T12:22:57;19.70;90.40
36450;DHT22;22475;51.390;7.180;2022-07-10T12:25:24;19.60;90.40
36450;DHT22;22475;51.390;7.180;2022-07-10T12:27:56;19.60;90.50
36450;DHT22;22475;51.390;7.180;2022-07-10T12:30:35;19.70;90.50
36450;DHT22;22475;51.390;7.180;2022-07-10T12:33:09;19.70;90.50
36450;DHT22;22475;51.390;7.180;2022-07-10T12:35:51;19.70;90.60
36450;DHT22;22475;51.390;7.180;2022-07-10T12:38:19;19.70;90.60
36450;DHT22;22475;51.390;7.180;2022-07-10T12:40:47;19.60;90.60
36450;DHT22;22475;51.390;7.180;2022-07-10T12:43:25;19.70;90.70
36450;DHT22;22475;51.390;7.180;2022-07-10T12:46:09;19.60;90.80
36450;DHT22;22475;51.390;7.180;2022-07-10T12:48:36;19.60;90.90
36450;DHT22;22475;51.390;7.180;2022-07-10T12:51:25;19.70;91.20
36450;DHT22;22475;51.390;7.180;2022-07-10T12:53:53;19.60;91.00
36450;DHT22;22475;51.390;7.180;2022-07-10T12:56:31;19.60;91.00
36450;DHT22;22475;51.390;7.180;2022-07-10T12:59:00;19.60;91.10
36450;DHT22;22475;51.390;7.180;2022-07-10T13:01:27;19.70;91.10
36450;DHT22;22475;51.390;7.180;2022-07-10T13:04:00;19.70;91.10
36450;DHT22;22475;51.390;7.180;2022-07-10T13:06:31;19.70;91.20
36450;DHT22;22475;51.390;7.180;2022-07-10T13:08:59;19.60;91.20
36450;DHT22;22475;51.390;7.180;2022-07-10T13:11:26;19.60;91.20
36450;DHT22;22475;51.390;7.180;2022-07-10T13:13:53;19.70;91.30
36450;DHT22;22475;51.390;7.180;2022-07-10T13:16:22;19.70;91.30
36450;DHT22;22475;51.390;7.180;2022-07-10T13:18:49;19.70;91.40
36450;DHT22;22475;51.390;7.180;2022-07-10T13:21:17;19.70;91.40
36450;DHT22;22475;51.390;7.180;2022-07-10T13:23:43;19.70;91.50
36450;DHT22;22475;51.390;7.180;2022-07-10T13:26:10;19.70;91.50
36450;DHT22;22475;51.390;7.180;2022-07-10T13:28:38;19.70;91.50
36450;DHT22;22475;51.390;7.180;2022-07-10T13:31:05;19.70;91.50
36450;DHT22;22475;51.390;7.180;2022-07-10T13:33:35;19.70;91.50
36450;DHT22;22475;51.390;7.180;2022-07-10T13:36:02;19.70;91.50
36450;DHT22;22475;51.390;7.180;2022-07-10T13:38:30;19.70;91.90
36450;DHT22;22475;51.390;7.180;2022-07-10T13:40:57;19.70;91.40
36450;DHT22;22475;51.390;7.180;2022-07-10T13:43:24;19.70;91.40
36450;DHT22;22475;51.390;7.180;2022-07-10T13:45:56;19.70;91.40
36450;DHT22;22475;51.390;7.180;2022-07-10T13:48:23;19.70;91.40
36450;DHT22;22475;51.390;7.180;2022-07-10T13:50:52;19.70;91.40
36450;DHT22;22475;51.390;7.180;2022-07-10T13:53:20;19.80;91.40
36450;DHT22;22475;51.390;7.180;2022-07-10T13:55:47;19.70;91.30
36450;DHT22;22475;51.390;7.180;2022-07-10T13:58:14;19.70;91.30
36450;DHT22;22475;51.390;7.180;2022-07-10T14:00:41;19.70;91.30
36450;DHT22;22475;51.390;7.180;2022-07-10T14:03:24;19.70;91.20
36450;DHT22;22475;51.390;7.180;2022-07-10T14:05:53;19.70;91.20
36450;DHT22;22475;51.390;7.180;2022-07-10T14:08:20;19.70;91.20
36450;DHT22;22475;51.390;7.180;2022-07-10T14:10:47;19.70;91.20
36450;DHT22;22475;51.390;7.180;2022-07-10T14:13:13;19.70;91.20
36450;DHT22;22475;51.390;7.180;2022-07-10T14:15:40;19.70;91.20
36450;DHT22;22475;51.390;7.180;2022-07-10T14:18:10;19.70;91.20
36450;DHT22;22475;51.390;7.180;2022-07-10T14:20:37;19.70;91.20
36450;DHT22;22475;51.390;7.180;2022-07-10T14:23:22;19.70;91.20
36450;DHT22;22475;51.390;7.180;2022-07-10T14:25:49;19.70;91.20
36450;DHT22;22475;51.390;7.180;2022-07-10T14:28:16;19.70;91.20
36450;DHT22;22475;51.390;7.180;2022-07-10T14:30:43;19.70;91.20
36450;DHT22;22475;51.390;7.180;2022-07-10T14:33:10;19.70;91.20
36450;DHT22;22475;51.390;7.180;2022-07-10T14:35:37;19.70;91.10
36450;DHT22;22475;51.390;7.180;2022-07-10T14:38:04;19.80;91.20
36450;DHT22;22475;51.390;7.180;2022-07-10T14:40:32;19.70;91.10
36450;DHT22;22475;51.390;7.180;2022-07-10T14:43:00;19.70;91.10
36450;DHT22;22475;51.390;7.180;2022-07-10T14:45:30;19.80;91.20
36450;DHT22;22475;51.390;7.180;2022-07-10T14:47:56;19.70;91.20
36450;DHT22;22475;51.390;7.180;2022-07-10T14:50:24;19.80;91.20
36450;DHT22;22475;51.390;7.180;2022-07-10T14:52:51;19.70;91.10
36450;DHT22;22475;51.390;7.180;2022-07-10T14:55:18;19.70;91.10
36450;DHT22;22475;51.390;7.180;2022-07-10T14:57:46;19.70;91.10
36450;DHT22;22475;51.390;7.180;2022-07-10T15:00:14;19.70;91.10
36450;DHT22;22475;51.390;7.180;2022-07-10T15:02:42;19.70;91.10
36450;DHT22;22475;51.390;7.180;2022-07-10T15:05:09;19.70;91.00
36450;DHT22;22475;51.390;7.180;2022-07-10T15:07:36;19.70;91.00
36450;DHT22;22475;51.390;7.180;2022-07-10T15:10:03;19.70;91.00
36450;DHT22;22475;51.390;7.180;2022-07-10T15:12:30;19.70;91.10
36450;DHT22;22475;51.390;7.180;2022-07-10T15:14:59;19.70;91.10
36450;DHT22;22475;51.390;7.180;2022-07-10T15:17:26;19.70;91.10
36450;DHT22;22475;51.390;7.180;2022-07-10T15:19:54;19.70;91.10
36450;DHT22;22475;51.390;7.180;2022-07-10T15:22:20;19.70;91.10
36450;DHT22;22475;51.390;7.180;2022-07-10T15:24:47;19.70;91.10
36450;DHT22;22475;51.390;7.180;2022-07-10T15:27:15;19.70;91.50
36450;DHT22;22475;51.390;7.180;2022-07-10T15:29:42;19.70;91.10
36450;DHT22;22475;51.390;7.180;2022-07-10T15:32:10;19.70;91.20
36450;DHT22;22475;51.390;7.180;2022-07-10T15:34:38;19.70;91.20
36450;DHT22;22475;51.390;7.180;2022-07-10T15:37:05;19.70;91.20
36450;DHT22;22475;51.390;7.180;2022-07-10T15:39:33;19.70;91.20
36450;DHT22;22475;51.390;7.180;2022-07-10T15:42:07;19.70;91.20